This is the latest recevied weather packets stored in our database for station/object DF1GD-10. If no packets are shown the sender has not sent any weather packets the latest 10 day(s).
| Time | Temp. | Humidity | Pressure | Rain* | Wind** | Luminosity | Snow |
|---|---|---|---|---|---|---|---|
| 1788219603 | 13.89° C | 63% | 1020.5 hPa | - | - | - | - |
| 1788218703 | 14.44° C | 62% | 1020.5 hPa | - | - | - | - |
| 1788217803 | 14.44° C | 61% | 1020.4 hPa | - | - | - | - |
| 1788216903 | 15° C | 60% | 1020.4 hPa | - | - | - | - |
| 1788216021 | 15° C | 60% | 1020.6 hPa | - | - | - | - |
| 1788215102 | 15° C | 61% | 1020.6 hPa | - | - | - | - |
| 1788214202 | 15° C | 60% | 1020.4 hPa | - | - | - | - |
| 1788213302 | 15.56° C | 58% | 1020.3 hPa | - | - | - | - |
| 1788212402 | 15.56° C | 56% | 1020 hPa | - | - | - | - |
| 1788211502 | 15.56° C | 57% | 1020.1 hPa | - | - | - | - |
| 1788210602 | 15.56° C | 57% | 1020.2 hPa | - | - | - | - |
| 1788209701 | 15.56° C | 57% | 1019.9 hPa | - | - | - | - |
| 1788208801 | 16.11° C | 55% | 1019.8 hPa | - | - | - | - |
| 1788207901 | 17.22° C | 50% | 1019.9 hPa | - | - | - | - |
| 1788207001 | 17.22° C | 49% | 1019.7 hPa | - | - | - | - |
| 1788206101 | 17.22° C | 51% | 1019.5 hPa | - | - | - | - |
| 1788205201 | 17.22° C | 51% | 1019.4 hPa | - | - | - | - |
| 1788204301 | 17.22° C | 51% | 1019.1 hPa | - | - | - | - |
| 1788203401 | 16.67° C | 51% | 1018.9 hPa | - | - | - | - |
| 1788202500 | 17.78° C | 48% | 1018.8 hPa | - | - | - | - |
| 1788201600 | 18.33° C | 45% | 1018.7 hPa | - | - | - | - |
| 1788200700 | 18.33° C | 44% | 1018.6 hPa | - | - | - | - |
| 1788199800 | 18.89° C | 43% | 1018.5 hPa | - | - | - | - |
| 1788198900 | 18.89° C | 42% | 1018.5 hPa | - | - | - | - |
| 1788198000 | 18.89° C | 41% | 1018.5 hPa | - | - | - | - |
* Rain since midnight (hover to see other rain measurements)
** Current wind speed in m/s (hover to see current wind gust speed)